PWSweather.com
Personal Weather Stations
Station Observations
AC5CV
Greenleaf Peninsula, Waco, TX 76710

Greenleaf PeninsulaWaco, TX 76710

Lat: 31.565, Lon: -97.198

Elevation: 570

Station Type: Ambient WS2080

http://johnchamber.dyndns.info/

High Low Average
Temperature 98.1°F36.7°C 75.7°F24.3°C 85.3°F29.6°C
Dew Point 77.4°F25.2°C 64.8°F18.2°C 72.2°F22.3°C
Winds 16.1 mph 25.9 kmh Calm Calm 3.0 mph SW4.8 kmh SW
Wind Gusts 27.5 mph44.3 kmh -- 8.0 mph12.9 kmh
Humidity 89% 35% 67%
Pressure 29.44 in997.0 mb 29.31 in992.6 mb -
Precipitation 0.01 in0.3 mm - -
Hour Temp Dew Point Humidity Winds Wind Gusts Pressure Precip Precip Rate Daily Precip Total
12:00 AM 86.0°F30.0°C 70.5°F21.4°C 60% 7.1 mph S11.4 kmh S 19.9 mph32.0 kmh 29.31 in992.6 mb 0.00 in0.0 mm 0.00 in0.0 mm 0.00 in0.0 mm
12:05 AM 86.0°F30.0°C 71.0°F21.7°C 61% 5.4 mph SSW8.7 kmh SSW 12.3 mph19.8 kmh 29.32 in992.9 mb 0.00 in0.0 mm 0.00 in0.0 mm 0.00 in0.0 mm
12:10 AM 85.6°F29.8°C 70.6°F21.4°C 61% 4.3 mph S6.9 kmh S 7.4 mph11.9 kmh 29.33 in993.2 mb 0.00 in0.0 mm 0.00 in0.0 mm 0.00 in0.0 mm
12:15 AM 85.5°F29.7°C 71.0°F21.7°C 62% 6.0 mph SSE9.7 kmh SSE 17.4 mph28.0 kmh 29.33 in993.2 mb 0.00 in0.0 mm 0.00 in0.0 mm 0.00 in0.0 mm
12:20 AM 85.5°F29.7°C 70.9°F21.6°C 62% 4.8 mph S7.7 kmh S 12.3 mph19.8 kmh 29.34 in993.6 mb 0.00 in0.0 mm 0.00 in0.0 mm 0.00 in0.0 mm
12:25 AM 85.3°F29.6°C 70.8°F21.6°C 62% 9.9 mph SSE15.9 kmh SSE 19.9 mph32.0 kmh 29.34 in993.6 mb 0.00 in0.0 mm 0.00 in0.0 mm 0.00 in0.0 mm
12:30 AM 85.1°F29.5°C 70.7°F21.5°C 62% 7.6 mph SSE12.2 kmh SSE 12.3 mph19.8 kmh 29.33 in993.2 mb 0.00 in0.0 mm 0.00 in0.0 mm 0.00 in0.0 mm
12:35 AM 84.7°F29.3°C 70.7°F21.5°C 63% 6.5 mph SSE10.5 kmh SSE 12.3 mph19.8 kmh 29.33 in993.2 mb 0.00 in0.0 mm 0.00 in0.0 mm 0.00 in0.0 mm
12:40 AM 84.6°F29.2°C 70.6°F21.4°C 63% 5.4 mph SSW8.7 kmh SSW 15.0 mph24.1 kmh 29.34 in993.6 mb 0.00 in0.0 mm 0.00 in0.0 mm 0.00 in0.0 mm
12:45 AM 84.6°F29.2°C 70.9°F21.6°C 64% 6.1 mph S9.8 kmh S 12.3 mph19.8 kmh 29.34 in993.6 mb 0.00 in0.0 mm 0.00 in0.0 mm 0.00 in0.0 mm
12:50 AM 84.5°F29.2°C 71.0°F21.7°C 64% 5.5 mph S8.9 kmh S 12.3 mph19.8 kmh 29.33 in993.2 mb 0.00 in0.0 mm 0.00 in0.0 mm 0.00 in0.0 mm
12:55 AM 84.2°F29.0°C 71.4°F21.9°C 66% 3.5 mph S5.6 kmh S 7.4 mph11.9 kmh 29.33 in993.2 mb 0.00 in0.0 mm 0.00 in0.0 mm 0.00 in0.0 mm
01:00 AM 84.2°F29.0°C 71.6°F22.0°C 66% 5.1 mph SSW8.2 kmh SSW 12.3 mph19.8 kmh 29.33 in993.2 mb 0.00 in0.0 mm 0.00 in0.0 mm 0.00 in0.0 mm
01:05 AM 84.1°F28.9°C 71.5°F21.9°C 66% 8.0 mph S12.9 kmh S 15.0 mph24.1 kmh 29.33 in993.2 mb 0.00 in0.0 mm 0.00 in0.0 mm 0.00 in0.0 mm
01:10 AM 83.9°F28.8°C 71.8°F22.1°C 67% 6.9 mph SSE11.1 kmh SSE 12.3 mph19.8 kmh 29.33 in993.2 mb 0.00 in0.0 mm 0.00 in0.0 mm 0.00 in0.0 mm
01:15 AM 83.6°F28.7°C 71.6°F22.0°C 67% 6.4 mph SSE10.3 kmh SSE 17.4 mph28.0 kmh 29.34 in993.6 mb 0.00 in0.0 mm 0.00 in0.0 mm 0.00 in0.0 mm
01:20 AM 83.5°F28.6°C 71.8°F22.1°C 68% 6.7 mph S10.8 kmh S 12.3 mph19.8 kmh 29.34 in993.6 mb 0.00 in0.0 mm 0.00 in0.0 mm 0.00 in0.0 mm
01:25 AM 83.5°F28.6°C 72.2°F22.3°C 69% 4.4 mph SSW7.1 kmh SSW 12.3 mph19.8 kmh 29.34 in993.6 mb 0.00 in0.0 mm 0.00 in0.0 mm 0.00 in0.0 mm
01:30 AM 83.4°F28.6°C 72.4°F22.4°C 70% 5.3 mph S8.5 kmh S 15.0 mph24.1 kmh 29.34 in993.6 mb 0.00 in0.0 mm 0.00 in0.0 mm 0.00 in0.0 mm
01:35 AM 83.1°F28.4°C 72.3°F22.4°C 70% 4.1 mph S6.6 kmh S 12.3 mph19.8 kmh 29.35 in993.9 mb 0.00 in0.0 mm 0.00 in0.0 mm 0.00 in0.0 mm
01:40 AM 83.1°F28.4°C 72.7°F22.6°C 71% 4.9 mph SSE7.9 kmh SSE 12.3 mph19.8 kmh 29.34 in993.6 mb 0.00 in0.0 mm 0.00 in0.0 mm 0.00 in0.0 mm
01:45 AM 83.1°F28.4°C 72.8°F22.7°C 71% 5.1 mph S8.2 kmh S 12.3 mph19.8 kmh 29.34 in993.6 mb 0.00 in0.0 mm 0.00 in0.0 mm 0.00 in0.0 mm
01:50 AM 83.1°F28.4°C 73.1°F22.8°C 72% 6.3 mph S10.1 kmh S 12.3 mph19.8 kmh 29.35 in993.9 mb 0.00 in0.0 mm 0.00 in0.0 mm 0.00 in0.0 mm
01:55 AM 82.8°F28.2°C 72.8°F22.7°C 72% 5.3 mph S8.5 kmh S 9.8 mph15.8 kmh 29.35 in993.9 mb 0.00 in0.0 mm 0.00 in0.0 mm 0.00 in0.0 mm
02:00 AM 82.8°F28.2°C 72.8°F22.7°C 72% 5.4 mph S8.7 kmh S 7.4 mph11.9 kmh 29.36 in994.2 mb 0.00 in0.0 mm 0.00 in0.0 mm 0.00 in0.0 mm
02:05 AM 82.8°F28.2°C 73.2°F22.9°C 73% 4.0 mph SSE6.4 kmh SSE 7.4 mph11.9 kmh 29.36 in994.2 mb 0.00 in0.0 mm 0.00 in0.0 mm 0.00 in0.0 mm
02:10 AM 82.8°F28.2°C 73.2°F22.9°C 73% 5.1 mph S8.2 kmh S 7.4 mph11.9 kmh 29.35 in993.9 mb 0.00 in0.0 mm 0.00 in0.0 mm 0.00 in0.0 mm
02:15 AM 82.5°F28.1°C 72.9°F22.7°C 73% 7.0 mph S11.3 kmh S 17.4 mph28.0 kmh 29.35 in993.9 mb 0.00 in0.0 mm 0.00 in0.0 mm 0.00 in0.0 mm
02:20 AM 82.4°F28.0°C 73.3°F22.9°C 74% 5.0 mph S8.0 kmh S 12.3 mph19.8 kmh 29.36 in994.2 mb 0.00 in0.0 mm 0.00 in0.0 mm 0.00 in0.0 mm
02:25 AM 82.4°F28.0°C 73.3°F22.9°C 74% 4.9 mph S7.9 kmh S 9.8 mph15.8 kmh 29.35 in993.9 mb 0.00 in0.0 mm 0.00 in0.0 mm 0.00 in0.0 mm
02:30 AM 82.4°F28.0°C 73.3°F22.9°C 74% 7.2 mph S11.6 kmh S 17.4 mph28.0 kmh 29.35 in993.9 mb 0.00 in0.0 mm 0.00 in0.0 mm 0.00 in0.0 mm
02:35 AM 82.4°F28.0°C 73.3°F22.9°C 74% 7.1 mph S11.4 kmh S 15.0 mph24.1 kmh 29.36 in994.2 mb 0.00 in0.0 mm 0.00 in0.0 mm 0.00 in0.0 mm
02:40 AM 82.3°F27.9°C 73.2°F22.9°C 74% 4.3 mph S6.9 kmh S 9.8 mph15.8 kmh 29.36 in994.2 mb 0.00 in0.0 mm 0.00 in0.0 mm 0.00 in0.0 mm
02:45 AM 82.2°F27.9°C 73.2°F22.9°C 74% 3.8 mph SSE6.1 kmh SSE 9.8 mph15.8 kmh 29.36 in994.2 mb 0.00 in0.0 mm 0.00 in0.0 mm 0.00 in0.0 mm
02:50 AM 82.1°F27.8°C 73.4°F23.0°C 75% 3.5 mph SSE5.6 kmh SSE 12.3 mph19.8 kmh 29.36 in994.2 mb 0.00 in0.0 mm 0.00 in0.0 mm 0.00 in0.0 mm
02:55 AM 81.8°F27.7°C 73.1°F22.8°C 75% 7.7 mph SSE12.4 kmh SSE 17.4 mph28.0 kmh 29.36 in994.2 mb 0.00 in0.0 mm 0.00 in0.0 mm 0.00 in0.0 mm
03:00 AM 81.7°F27.6°C 73.4°F23.0°C 76% 5.5 mph S8.9 kmh S 9.8 mph15.8 kmh 29.36 in994.2 mb 0.00 in0.0 mm 0.00 in0.0 mm 0.00 in0.0 mm
03:05 AM 81.7°F27.6°C 73.4°F23.0°C 76% 2.0 mph SW3.2 kmh SW 4.9 mph7.9 kmh 29.37 in994.6 mb 0.00 in0.0 mm 0.00 in0.0 mm 0.00 in0.0 mm
03:10 AM 81.7°F27.6°C 73.4°F23.0°C 76% 3.8 mph S6.1 kmh S 7.4 mph11.9 kmh 29.37 in994.6 mb 0.00 in0.0 mm 0.00 in0.0 mm 0.00 in0.0 mm
03:15 AM 81.5°F27.5°C 73.2°F22.9°C 76% 6.6 mph S10.6 kmh S 12.3 mph19.8 kmh 29.37 in994.6 mb 0.00 in0.0 mm 0.00 in0.0 mm 0.00 in0.0 mm
03:20 AM 81.4°F27.4°C 73.5°F23.1°C 77% 6.1 mph SSE9.8 kmh SSE 12.3 mph19.8 kmh 29.36 in994.2 mb 0.00 in0.0 mm 0.00 in0.0 mm 0.00 in0.0 mm
03:25 AM 81.3°F27.4°C 73.4°F23.0°C 77% 4.5 mph S7.2 kmh S 9.8 mph15.8 kmh 29.36 in994.2 mb 0.00 in0.0 mm 0.00 in0.0 mm 0.00 in0.0 mm
03:30 AM 81.3°F27.4°C 73.4°F23.0°C 77% 3.0 mph SW4.8 kmh SW 4.9 mph7.9 kmh 29.36 in994.2 mb 0.00 in0.0 mm 0.00 in0.0 mm 0.00 in0.0 mm
03:35 AM 81.3°F27.4°C 73.4°F23.0°C 77% 2.7 mph SSW4.3 kmh SSW 7.4 mph11.9 kmh 29.37 in994.6 mb 0.00 in0.0 mm 0.00 in0.0 mm 0.00 in0.0 mm
03:40 AM 81.3°F27.4°C 73.4°F23.0°C 77% 3.5 mph S5.6 kmh S 7.4 mph11.9 kmh 29.37 in994.6 mb 0.00 in0.0 mm 0.00 in0.0 mm 0.00 in0.0 mm
03:45 AM 81.3°F27.4°C 73.7°F23.2°C 78% 1.8 mph SW2.9 kmh SW 4.9 mph7.9 kmh 29.36 in994.2 mb 0.00 in0.0 mm 0.00 in0.0 mm 0.00 in0.0 mm
03:50 AM 81.3°F27.4°C 73.8°F23.2°C 78% 2.4 mph S3.9 kmh S 9.8 mph15.8 kmh 29.36 in994.2 mb 0.00 in0.0 mm 0.00 in0.0 mm 0.00 in0.0 mm
03:55 AM 81.3°F27.4°C 73.8°F23.2°C 78% 5.5 mph SSE8.9 kmh SSE 9.8 mph15.8 kmh 29.36 in994.2 mb 0.00 in0.0 mm 0.00 in0.0 mm 0.00 in0.0 mm
04:00 AM 81.3°F27.4°C 73.8°F23.2°C 78% 4.3 mph S6.9 kmh S 9.8 mph15.8 kmh 29.36 in994.2 mb 0.00 in0.0 mm 0.00 in0.0 mm 0.00 in0.0 mm
04:05 AM 81.3°F27.4°C 73.8°F23.2°C 78% 2.9 mph S4.7 kmh S 7.4 mph11.9 kmh 29.36 in994.2 mb 0.00 in0.0 mm 0.00 in0.0 mm 0.00 in0.0 mm
04:10 AM 81.3°F27.4°C 73.8°F23.2°C 78% 7.0 mph S11.3 kmh S 15.0 mph24.1 kmh 29.35 in993.9 mb 0.00 in0.0 mm 0.00 in0.0 mm 0.00 in0.0 mm
04:15 AM 81.3°F27.4°C 73.8°F23.2°C 78% 5.6 mph SSW9.0 kmh SSW 12.3 mph19.8 kmh 29.36 in994.2 mb 0.00 in0.0 mm 0.00 in0.0 mm 0.00 in0.0 mm
04:20 AM 81.3°F27.4°C 73.8°F23.2°C 78% 3.4 mph S5.5 kmh S 7.4 mph11.9 kmh 29.36 in994.2 mb 0.00 in0.0 mm 0.00 in0.0 mm 0.00 in0.0 mm
04:25 AM 81.3°F27.4°C 73.8°F23.2°C 78% 7.0 mph S11.3 kmh S 9.8 mph15.8 kmh 29.36 in994.2 mb 0.00 in0.0 mm 0.00 in0.0 mm 0.00 in0.0 mm
04:30 AM 81.3°F27.4°C 73.8°F23.2°C 78% 5.1 mph S8.2 kmh S 9.8 mph15.8 kmh 29.36 in994.2 mb 0.00 in0.0 mm 0.00 in0.0 mm 0.00 in0.0 mm
04:35 AM 81.3°F27.4°C 73.8°F23.2°C 78% 2.7 mph S4.3 kmh S 4.9 mph7.9 kmh 29.36 in994.2 mb 0.00 in0.0 mm 0.00 in0.0 mm 0.00 in0.0 mm
04:40 AM 81.3°F27.4°C 73.8°F23.2°C 78% 8.8 mph S14.2 kmh S 15.0 mph24.1 kmh 29.36 in994.2 mb 0.00 in0.0 mm 0.00 in0.0 mm 0.00 in0.0 mm
04:45 AM 81.3°F27.4°C 74.1°F23.4°C 79% 2.9 mph S4.7 kmh S 4.9 mph7.9 kmh 29.36 in994.2 mb 0.00 in0.0 mm 0.00 in0.0 mm 0.00 in0.0 mm
04:50 AM 81.3°F27.4°C 74.1°F23.4°C 79% 4.0 mph S6.4 kmh S 15.0 mph24.1 kmh 29.36 in994.2 mb 0.00 in0.0 mm 0.00 in0.0 mm 0.00 in0.0 mm
04:55 AM 81.1°F27.3°C 74.0°F23.3°C 79% 5.6 mph SSE9.0 kmh SSE 15.0 mph24.1 kmh 29.37 in994.6 mb 0.00 in0.0 mm 0.00 in0.0 mm 0.00 in0.0 mm
05:00 AM 81.1°F27.3°C 74.0°F23.3°C 79% 5.2 mph S8.4 kmh S 12.3 mph19.8 kmh 29.37 in994.6 mb 0.00 in0.0 mm 0.00 in0.0 mm 0.00 in0.0 mm
05:05 AM 81.1°F27.3°C 74.0°F23.3°C 79% 2.8 mph SSW4.5 kmh SSW 9.8 mph15.8 kmh 29.38 in994.9 mb 0.00 in0.0 mm 0.00 in0.0 mm 0.00 in0.0 mm
05:10 AM 81.1°F27.3°C 74.3°F23.5°C 80% 2.1 mph SW3.4 kmh SW 7.4 mph11.9 kmh 29.38 in994.9 mb 0.00 in0.0 mm 0.00 in0.0 mm 0.00 in0.0 mm
05:15 AM 81.1°F27.3°C 74.3°F23.5°C 80% 2.0 mph S3.2 kmh S 9.8 mph15.8 kmh 29.38 in994.9 mb 0.00 in0.0 mm 0.00 in0.0 mm 0.00 in0.0 mm
05:20 AM 81.1°F27.3°C 74.3°F23.5°C 80% 1.8 mph S2.9 kmh S 7.4 mph11.9 kmh 29.38 in994.9 mb 0.00 in0.0 mm 0.00 in0.0 mm 0.00 in0.0 mm
05:25 AM 81.1°F27.3°C 74.3°F23.5°C 80% 3.2 mph S5.1 kmh S 9.8 mph15.8 kmh 29.38 in994.9 mb 0.00 in0.0 mm 0.00 in0.0 mm 0.00 in0.0 mm
05:30 AM 81.1°F27.3°C 74.3°F23.5°C 80% 4.8 mph SSW7.7 kmh SSW 9.8 mph15.8 kmh 29.38 in994.9 mb 0.00 in0.0 mm 0.00 in0.0 mm 0.00 in0.0 mm
05:35 AM 81.1°F27.3°C 74.3°F23.5°C 80% 6.0 mph S9.7 kmh S 19.9 mph32.0 kmh 29.38 in994.9 mb 0.00 in0.0 mm 0.00 in0.0 mm 0.00 in0.0 mm
05:40 AM 81.1°F27.3°C 74.3°F23.5°C 80% 5.1 mph SSE8.2 kmh SSE 12.3 mph19.8 kmh 29.38 in994.9 mb 0.00 in0.0 mm 0.00 in0.0 mm 0.00 in0.0 mm
05:45 AM 81.0°F27.2°C 74.2°F23.4°C 80% 5.8 mph SSE9.3 kmh SSE 12.3 mph19.8 kmh 29.37 in994.6 mb 0.00 in0.0 mm 0.00 in0.0 mm 0.00 in0.0 mm
05:50 AM 81.0°F27.2°C 74.2°F23.4°C 80% 3.9 mph S6.3 kmh S 7.4 mph11.9 kmh 29.37 in994.6 mb 0.00 in0.0 mm 0.00 in0.0 mm 0.00 in0.0 mm
05:55 AM 81.0°F27.2°C 74.2°F23.4°C 80% 4.4 mph S7.1 kmh S 7.4 mph11.9 kmh 29.37 in994.6 mb 0.00 in0.0 mm 0.00 in0.0 mm 0.00 in0.0 mm
06:00 AM 81.0°F27.2°C 74.2°F23.4°C 80% 3.1 mph S5.0 kmh S 7.4 mph11.9 kmh 29.37 in994.6 mb 0.00 in0.0 mm 0.00 in0.0 mm 0.00 in0.0 mm
06:05 AM 81.0°F27.2°C 74.2°F23.4°C 80% 4.6 mph SSE7.4 kmh SSE 9.8 mph15.8 kmh 29.37 in994.6 mb 0.00 in0.0 mm 0.00 in0.0 mm 0.00 in0.0 mm
06:10 AM 81.0°F27.2°C 74.2°F23.4°C 80% 3.0 mph SSW4.8 kmh SSW 7.4 mph11.9 kmh 29.37 in994.6 mb 0.00 in0.0 mm 0.00 in0.0 mm 0.00 in0.0 mm
06:15 AM 81.0°F27.2°C 74.2°F23.4°C 80% 4.6 mph S7.4 kmh S 9.8 mph15.8 kmh 29.37 in994.6 mb 0.00 in0.0 mm 0.00 in0.0 mm 0.00 in0.0 mm
06:20 AM 80.9°F27.2°C 74.1°F23.4°C 80% 3.1 mph S5.0 kmh S 9.8 mph15.8 kmh 29.37 in994.6 mb 0.00 in0.0 mm 0.00 in0.0 mm 0.00 in0.0 mm
06:25 AM 80.8°F27.1°C 74.2°F23.4°C 80% 3.2 mph S5.1 kmh S 12.3 mph19.8 kmh 29.37 in994.6 mb 0.00 in0.0 mm 0.00 in0.0 mm 0.00 in0.0 mm
06:30 AM 80.8°F27.1°C 74.3°F23.5°C 81% 2.5 mph S4.0 kmh S 7.4 mph11.9 kmh 29.38 in994.9 mb 0.00 in0.0 mm 0.00 in0.0 mm 0.00 in0.0 mm
06:35 AM 80.8°F27.1°C 74.4°F23.6°C 81% 2.1 mph S3.4 kmh S 4.9 mph7.9 kmh 29.37 in994.6 mb 0.00 in0.0 mm 0.00 in0.0 mm 0.00 in0.0 mm
06:40 AM 80.7°F27.1°C 74.3°F23.5°C 81% 1.3 mph SW2.1 kmh SW 4.9 mph7.9 kmh 29.38 in994.9 mb 0.00 in0.0 mm 0.00 in0.0 mm 0.00 in0.0 mm
06:45 AM 80.6°F27.0°C 74.2°F23.4°C 81% 4.9 mph S7.9 kmh S 9.8 mph15.8 kmh 29.39 in995.3 mb 0.00 in0.0 mm 0.00 in0.0 mm 0.00 in0.0 mm
06:50 AM 80.6°F27.0°C 74.2°F23.4°C 81% 5.5 mph SSE8.9 kmh SSE 9.8 mph15.8 kmh 29.38 in994.9 mb 0.00 in0.0 mm 0.00 in0.0 mm 0.00 in0.0 mm
06:55 AM 80.7°F27.1°C 74.3°F23.5°C 81% 3.6 mph SSE5.8 kmh SSE 9.8 mph15.8 kmh 29.39 in995.3 mb 0.00 in0.0 mm 0.00 in0.0 mm 0.00 in0.0 mm
07:00 AM 80.8°F27.1°C 74.4°F23.6°C 81% 5.9 mph S9.5 kmh S 12.3 mph19.8 kmh 29.39 in995.3 mb 0.00 in0.0 mm 0.00 in0.0 mm 0.00 in0.0 mm
07:05 AM 80.8°F27.1°C 74.4°F23.6°C 81% 5.6 mph SSE9.0 kmh SSE 9.8 mph15.8 kmh 29.39 in995.3 mb 0.00 in0.0 mm 0.00 in0.0 mm 0.00 in0.0 mm
07:10 AM 80.8°F27.1°C 74.4°F23.6°C 81% 3.6 mph S5.8 kmh S 9.8 mph15.8 kmh 29.39 in995.3 mb 0.00 in0.0 mm 0.00 in0.0 mm 0.00 in0.0 mm
07:15 AM 80.8°F27.1°C 74.4°F23.6°C 81% 2.1 mph SW3.4 kmh SW 12.3 mph19.8 kmh 29.39 in995.3 mb 0.00 in0.0 mm 0.00 in0.0 mm 0.00 in0.0 mm
07:20 AM 80.8°F27.1°C 74.4°F23.6°C 81% 0.8 mph SSW1.3 kmh SSW 2.5 mph4.0 kmh 29.39 in995.3 mb 0.00 in0.0 mm 0.00 in0.0 mm 0.00 in0.0 mm
07:25 AM 80.8°F27.1°C 74.4°F23.6°C 81% 2.0 mph SW3.2 kmh SW 4.9 mph7.9 kmh 29.40 in995.6 mb 0.00 in0.0 mm 0.00 in0.0 mm 0.00 in0.0 mm
07:30 AM 80.8°F27.1°C 74.4°F23.6°C 81% 3.3 mph S5.3 kmh S 9.8 mph15.8 kmh 29.40 in995.6 mb 0.00 in0.0 mm 0.00 in0.0 mm 0.00 in0.0 mm
07:35 AM 80.8°F27.1°C 74.4°F23.6°C 81% 3.4 mph S5.5 kmh S 9.8 mph15.8 kmh 29.40 in995.6 mb 0.00 in0.0 mm 0.00 in0.0 mm 0.00 in0.0 mm
07:40 AM 80.6°F27.0°C 74.7°F23.7°C 82% 2.7 mph S4.3 kmh S 9.8 mph15.8 kmh 29.41 in995.9 mb 0.00 in0.0 mm 0.00 in0.0 mm 0.00 in0.0 mm
07:45 AM 80.5°F26.9°C 75.3°F24.1°C 84% 0.7 mph SW1.1 kmh SW 4.9 mph7.9 kmh 29.40 in995.6 mb 0.00 in0.0 mm 0.00 in0.0 mm 0.00 in0.0 mm
07:50 AM 80.4°F26.9°C 75.6°F24.2°C 85% 0.5 mph WSW0.8 kmh WSW 2.5 mph4.0 kmh 29.41 in995.9 mb 0.00 in0.0 mm 0.00 in0.0 mm 0.00 in0.0 mm
07:55 AM 80.0°F26.7°C 75.4°F24.1°C 86% 1.0 mph SW1.6 kmh SW 4.9 mph7.9 kmh 29.41 in995.9 mb 0.00 in0.0 mm 0.00 in0.0 mm 0.00 in0.0 mm
08:00 AM 79.2°F26.2°C 75.0°F23.9°C 87% 1.0 mph SW1.6 kmh SW 4.9 mph7.9 kmh 29.41 in995.9 mb 0.00 in0.0 mm 0.00 in0.0 mm 0.00 in0.0 mm
08:05 AM 79.2°F26.2°C 75.3°F24.1°C 88% 0.7 mph SSW1.1 kmh SSW 2.5 mph4.0 kmh 29.41 in995.9 mb 0.00 in0.0 mm 0.00 in0.0 mm 0.00 in0.0 mm
08:10 AM 79.2°F26.2°C 75.5°F24.2°C 88% 1.2 mph SSE1.9 kmh SSE 4.9 mph7.9 kmh 29.41 in995.9 mb 0.00 in0.0 mm 0.00 in0.0 mm 0.00 in0.0 mm
08:15 AM 79.2°F26.2°C 75.6°F24.2°C 89% 2.6 mph S4.2 kmh S 4.9 mph7.9 kmh 29.41 in995.9 mb 0.00 in0.0 mm 0.00 in0.0 mm 0.00 in0.0 mm
08:20 AM 79.0°F26.1°C 75.5°F24.2°C 89% 2.2 mph S3.5 kmh S 4.9 mph7.9 kmh 29.41 in995.9 mb 0.00 in0.0 mm 0.00 in0.0 mm 0.00 in0.0 mm
08:25 AM 79.0°F26.1°C 75.5°F24.2°C 89% 1.5 mph SSW2.4 kmh SSW 4.9 mph7.9 kmh 29.41 in995.9 mb 0.01 in0.3 mm 0.12 in3.0 mm 0.01 in0.3 mm
08:30 AM 79.0°F26.1°C 75.5°F24.2°C 89% 1.4 mph S2.3 kmh S 4.9 mph7.9 kmh 29.41 in995.9 mb 0.01 in0.3 mm 0.00 in0.0 mm 0.01 in0.3 mm
08:35 AM 79.0°F26.1°C 75.5°F24.2°C 89% 2.2 mph SSE3.5 kmh SSE 4.9 mph7.9 kmh 29.41 in995.9 mb 0.01 in0.3 mm 0.00 in0.0 mm 0.01 in0.3 mm
08:40 AM 79.0°F26.1°C 75.5°F24.2°C 89% 2.6 mph S4.2 kmh S 4.9 mph7.9 kmh 29.41 in995.9 mb 0.01 in0.3 mm 0.00 in0.0 mm 0.01 in0.3 mm
08:45 AM 79.0°F26.1°C 75.5°F24.2°C 89% 1.6 mph SW2.6 kmh SW 4.9 mph7.9 kmh 29.41 in995.9 mb 0.01 in0.3 mm 0.00 in0.0 mm 0.01 in0.3 mm
08:50 AM 79.0°F26.1°C 75.4°F24.1°C 89% 2.1 mph SSW3.4 kmh SSW 7.4 mph11.9 kmh 29.41 in995.9 mb 0.01 in0.3 mm 0.00 in0.0 mm 0.01 in0.3 mm
08:55 AM 79.3°F26.3°C 75.4°F24.1°C 88% 1.5 mph SW2.4 kmh SW 4.9 mph7.9 kmh 29.41 in995.9 mb 0.01 in0.3 mm 0.00 in0.0 mm 0.01 in0.3 mm
09:00 AM 79.9°F26.6°C 75.2°F24.0°C 86% 4.1 mph SSW6.6 kmh SSW 7.4 mph11.9 kmh 29.41 in995.9 mb 0.01 in0.3 mm 0.00 in0.0 mm 0.01 in0.3 mm
09:05 AM 80.0°F26.7°C 74.4°F23.6°C 83% 2.6 mph S4.2 kmh S 7.4 mph11.9 kmh 29.41 in995.9 mb 0.01 in0.3 mm 0.00 in0.0 mm 0.01 in0.3 mm
09:10 AM 80.1°F26.7°C 74.1°F23.4°C 82% 2.0 mph S3.2 kmh S 7.4 mph11.9 kmh 29.41 in995.9 mb 0.01 in0.3 mm 0.00 in0.0 mm 0.01 in0.3 mm
09:15 AM 80.3°F26.8°C 73.9°F23.3°C 81% 1.6 mph SW2.6 kmh SW 2.5 mph4.0 kmh 29.41 in995.9 mb 0.01 in0.3 mm 0.00 in0.0 mm 0.01 in0.3 mm
09:20 AM 81.3°F27.4°C 74.5°F23.6°C 80% 0.9 mph S1.4 kmh S 4.9 mph7.9 kmh 29.41 in995.9 mb 0.01 in0.3 mm 0.00 in0.0 mm 0.01 in0.3 mm
09:25 AM 81.3°F27.4°C 74.1°F23.4°C 79% 0.9 mph SW1.4 kmh SW 2.5 mph4.0 kmh 29.41 in995.9 mb 0.00 in0.0 mm 0.00 in0.0 mm 0.01 in0.3 mm
09:30 AM 81.3°F27.4°C 74.0°F23.3°C 78% 1.2 mph SW1.9 kmh SW 4.9 mph7.9 kmh 29.41 in995.9 mb 0.00 in0.0 mm 0.00 in0.0 mm 0.01 in0.3 mm
09:35 AM 81.5°F27.5°C 73.3°F22.9°C 76% 1.8 mph S2.9 kmh S 4.9 mph7.9 kmh 29.41 in995.9 mb 0.00 in0.0 mm 0.00 in0.0 mm 0.01 in0.3 mm
09:40 AM 83.5°F28.6°C 74.0°F23.3°C 73% 1.6 mph SW2.6 kmh SW 4.9 mph7.9 kmh 29.42 in996.3 mb 0.00 in0.0 mm 0.00 in0.0 mm 0.01 in0.3 mm
09:45 AM 83.5°F28.6°C 73.9°F23.3°C 73% 1.8 mph SW2.9 kmh SW 4.9 mph7.9 kmh 29.41 in995.9 mb 0.00 in0.0 mm 0.00 in0.0 mm 0.01 in0.3 mm
09:50 AM 83.4°F28.6°C 74.0°F23.3°C 74% 0.8 mph SSW1.3 kmh SSW 4.9 mph7.9 kmh 29.42 in996.3 mb 0.00 in0.0 mm 0.00 in0.0 mm 0.01 in0.3 mm
09:55 AM 83.5°F28.6°C 73.3°F22.9°C 72% 0.4 mph WSW0.6 kmh WSW 2.5 mph4.0 kmh 29.42 in996.3 mb 0.00 in0.0 mm 0.00 in0.0 mm 0.01 in0.3 mm
10:00 AM 84.4°F29.1°C 73.0°F22.8°C 69% 1.0 mph SW1.6 kmh SW 2.5 mph4.0 kmh 29.42 in996.3 mb 0.00 in0.0 mm 0.00 in0.0 mm 0.01 in0.3 mm
10:05 AM 84.5°F29.2°C 71.7°F22.1°C 66% 3.1 mph WSW5.0 kmh WSW 7.4 mph11.9 kmh 29.42 in996.3 mb 0.00 in0.0 mm 0.00 in0.0 mm 0.01 in0.3 mm
10:10 AM 84.6°F29.2°C 70.6°F21.4°C 63% 1.0 mph WSW1.6 kmh WSW 4.9 mph7.9 kmh 29.43 in996.6 mb 0.00 in0.0 mm 0.00 in0.0 mm 0.01 in0.3 mm
10:15 AM 85.0°F29.4°C 70.6°F21.4°C 62% 1.5 mph SW2.4 kmh SW 4.9 mph7.9 kmh 29.43 in996.6 mb 0.00 in0.0 mm 0.00 in0.0 mm 0.01 in0.3 mm
10:20 AM 86.2°F30.1°C 71.7°F22.1°C 62% 1.5 mph WSW2.4 kmh WSW 2.5 mph4.0 kmh 29.43 in996.6 mb 0.00 in0.0 mm 0.00 in0.0 mm 0.01 in0.3 mm
10:25 AM 86.2°F30.1°C 71.6°F22.0°C 62% 1.9 mph SW3.1 kmh SW 4.9 mph7.9 kmh 29.43 in996.6 mb 0.00 in0.0 mm 0.00 in0.0 mm 0.01 in0.3 mm
10:30 AM 86.2°F30.1°C 71.1°F21.7°C 61% 1.2 mph WSW1.9 kmh WSW 4.9 mph7.9 kmh 29.43 in996.6 mb 0.00 in0.0 mm 0.00 in0.0 mm 0.01 in0.3 mm
10:35 AM 86.2°F30.1°C 71.2°F21.8°C 61% 1.2 mph WSW1.9 kmh WSW 4.9 mph7.9 kmh 29.43 in996.6 mb 0.00 in0.0 mm 0.00 in0.0 mm 0.01 in0.3 mm
10:40 AM 86.9°F30.5°C 71.5°F21.9°C 60% 0.4 mph WSW0.6 kmh WSW 2.5 mph4.0 kmh 29.43 in996.6 mb 0.00 in0.0 mm 0.00 in0.0 mm 0.01 in0.3 mm
10:45 AM 86.9°F30.5°C 71.5°F21.9°C 60% 1.2 mph WSW1.9 kmh WSW 4.9 mph7.9 kmh 29.43 in996.6 mb 0.00 in0.0 mm 0.00 in0.0 mm 0.01 in0.3 mm
10:50 AM 86.9°F30.5°C 71.6°F22.0°C 60% 0.5 mph WSW0.8 kmh WSW 2.5 mph4.0 kmh 29.43 in996.6 mb 0.00 in0.0 mm 0.00 in0.0 mm 0.01 in0.3 mm
10:55 AM 86.8°F30.4°C 71.9°F22.2°C 62% 0.9 mph WSW1.4 kmh WSW 4.9 mph7.9 kmh 29.43 in996.6 mb 0.00 in0.0 mm 0.00 in0.0 mm 0.01 in0.3 mm
11:00 AM 86.4°F30.2°C 71.7°F22.1°C 62% 1.1 mph SW1.8 kmh SW 4.9 mph7.9 kmh 29.43 in996.6 mb 0.00 in0.0 mm 0.00 in0.0 mm 0.01 in0.3 mm
11:05 AM 86.4°F30.2°C 71.6°F22.0°C 62% 1.1 mph SW1.8 kmh SW 4.9 mph7.9 kmh 29.43 in996.6 mb 0.00 in0.0 mm 0.00 in0.0 mm 0.01 in0.3 mm
11:10 AM 86.4°F30.2°C 71.7°F22.1°C 62% 0.6 mph WSW1.0 kmh WSW 2.5 mph4.0 kmh 29.43 in996.6 mb 0.00 in0.0 mm 0.00 in0.0 mm 0.01 in0.3 mm
11:15 AM 86.4°F30.2°C 71.2°F21.8°C 61% 1.0 mph SW1.6 kmh SW 4.9 mph7.9 kmh 29.43 in996.6 mb 0.00 in0.0 mm 0.00 in0.0 mm 0.01 in0.3 mm
11:20 AM 87.7°F30.9°C 71.7°F22.1°C 59% 0.8 mph SW1.3 kmh SW 2.5 mph4.0 kmh 29.43 in996.6 mb 0.00 in0.0 mm 0.00 in0.0 mm 0.01 in0.3 mm
11:25 AM 87.9°F31.1°C 71.5°F21.9°C 59% 0.6 mph W1.0 kmh W 4.9 mph7.9 kmh 29.44 in997.0 mb 0.00 in0.0 mm 0.00 in0.0 mm 0.01 in0.3 mm
11:30 AM 87.9°F31.1°C 71.1°F21.7°C 58% 1.3 mph WSW2.1 kmh WSW 4.9 mph7.9 kmh 29.43 in996.6 mb 0.00 in0.0 mm 0.00 in0.0 mm 0.01 in0.3 mm
11:35 AM 88.0°F31.1°C 70.6°F21.4°C 56% 1.4 mph WSW2.3 kmh WSW 4.9 mph7.9 kmh 29.44 in997.0 mb 0.00 in0.0 mm 0.00 in0.0 mm 0.01 in0.3 mm
11:40 AM 88.3°F31.3°C 71.1°F21.7°C 57% 1.2 mph WSW1.9 kmh WSW 4.9 mph7.9 kmh 29.44 in997.0 mb 0.00 in0.0 mm 0.00 in0.0 mm 0.01 in0.3 mm
11:45 AM 88.2°F31.2°C 71.2°F21.8°C 57% Calm Calm -- 29.44 in997.0 mb 0.00 in0.0 mm 0.00 in0.0 mm 0.01 in0.3 mm
11:50 AM 88.2°F31.2°C 71.6°F22.0°C 58% 0.7 mph WSW1.1 kmh WSW 4.9 mph7.9 kmh 29.44 in997.0 mb 0.00 in0.0 mm 0.00 in0.0 mm 0.01 in0.3 mm
11:55 AM 88.2°F31.2°C 72.1°F22.3°C 59% 0.5 mph SW0.8 kmh SW 2.5 mph4.0 kmh 29.44 in997.0 mb 0.00 in0.0 mm 0.00 in0.0 mm 0.01 in0.3 mm
12:00 PM 88.3°F31.3°C 72.1°F22.3°C 59% 0.6 mph WSW1.0 kmh WSW 2.5 mph4.0 kmh 29.44 in997.0 mb 0.00 in0.0 mm 0.00 in0.0 mm 0.01 in0.3 mm
12:05 PM 88.3°F31.3°C 72.0°F22.2°C 59% 0.2 mph WSW0.3 kmh WSW 2.5 mph4.0 kmh 29.44 in997.0 mb 0.00 in0.0 mm 0.00 in0.0 mm 0.01 in0.3 mm
12:10 PM 88.3°F31.3°C 72.1°F22.3°C 59% 0.2 mph WSW0.3 kmh WSW 2.5 mph4.0 kmh 29.43 in996.6 mb 0.00 in0.0 mm 0.00 in0.0 mm 0.01 in0.3 mm
12:15 PM 88.4°F31.3°C 72.2°F22.3°C 59% 0.7 mph WSW1.1 kmh WSW 2.5 mph4.0 kmh 29.43 in996.6 mb 0.00 in0.0 mm 0.00 in0.0 mm 0.01 in0.3 mm
12:20 PM 88.6°F31.4°C 72.4°F22.4°C 59% Calm Calm -- 29.43 in996.6 mb 0.00 in0.0 mm 0.00 in0.0 mm 0.01 in0.3 mm
12:25 PM 88.9°F31.6°C 71.9°F22.2°C 58% 0.4 mph W0.6 kmh W 2.5 mph4.0 kmh 29.43 in996.6 mb 0.00 in0.0 mm 0.00 in0.0 mm 0.01 in0.3 mm
12:30 PM 89.0°F31.7°C 71.6°F22.0°C 57% Calm Calm 2.5 mph4.0 kmh 29.43 in996.6 mb 0.00 in0.0 mm 0.00 in0.0 mm 0.01 in0.3 mm
12:35 PM 89.2°F31.8°C 70.8°F21.6°C 55% 0.2 mph S0.3 kmh S 2.5 mph4.0 kmh 29.43 in996.6 mb 0.00 in0.0 mm 0.00 in0.0 mm 0.01 in0.3 mm
12:40 PM 90.3°F32.4°C 70.9°F21.6°C 53% 0.2 mph WSW0.3 kmh WSW 2.5 mph4.0 kmh 29.43 in996.6 mb 0.00 in0.0 mm 0.00 in0.0 mm 0.01 in0.3 mm
12:45 PM 91.0°F32.8°C 71.5°F21.9°C 53% 0.7 mph WSW1.1 kmh WSW 2.5 mph4.0 kmh 29.42 in996.3 mb 0.00 in0.0 mm 0.00 in0.0 mm 0.01 in0.3 mm
12:50 PM 91.2°F32.9°C 71.4°F21.9°C 52% Calm Calm -- 29.42 in996.3 mb 0.00 in0.0 mm 0.00 in0.0 mm 0.01 in0.3 mm
12:55 PM 91.4°F33.0°C 71.1°F21.7°C 52% 0.5 mph WSW0.8 kmh WSW 2.5 mph4.0 kmh 29.42 in996.3 mb 0.00 in0.0 mm 0.00 in0.0 mm 0.01 in0.3 mm
01:00 PM 91.3°F32.9°C 71.7°F22.1°C 53% Calm Calm 2.5 mph4.0 kmh 29.42 in996.3 mb 0.00 in0.0 mm 0.00 in0.0 mm 0.01 in0.3 mm
01:05 PM 91.1°F32.8°C 74.1°F23.4°C 58% 1.0 mph NNW1.6 kmh NNW 4.9 mph7.9 kmh 29.42 in996.3 mb 0.00 in0.0 mm 0.00 in0.0 mm 0.01 in0.3 mm
01:10 PM 90.8°F32.7°C 75.8°F24.3°C 62% 1.4 mph WSW2.3 kmh WSW 7.4 mph11.9 kmh 29.42 in996.3 mb 0.00 in0.0 mm 0.00 in0.0 mm 0.01 in0.3 mm
01:15 PM 90.1°F32.3°C 77.4°F25.2°C 66% 1.3 mph WNW2.1 kmh WNW 4.9 mph7.9 kmh 29.42 in996.3 mb 0.00 in0.0 mm 0.00 in0.0 mm 0.01 in0.3 mm
01:20 PM 88.6°F31.4°C 75.9°F24.4°C 66% 4.2 mph NW6.8 kmh NW 9.8 mph15.8 kmh 29.42 in996.3 mb 0.00 in0.0 mm 0.00 in0.0 mm 0.01 in0.3 mm
01:25 PM 87.1°F30.6°C 75.2°F24.0°C 68% 1.9 mph NW3.1 kmh NW 7.4 mph11.9 kmh 29.42 in996.3 mb 0.00 in0.0 mm 0.00 in0.0 mm 0.01 in0.3 mm
01:30 PM 87.1°F30.6°C 75.5°F24.2°C 69% 1.6 mph W2.6 kmh W 4.9 mph7.9 kmh 29.42 in996.3 mb 0.00 in0.0 mm 0.00 in0.0 mm 0.01 in0.3 mm
01:35 PM 86.9°F30.5°C 75.7°F24.3°C 70% 2.6 mph NW4.2 kmh NW 7.4 mph11.9 kmh 29.42 in996.3 mb 0.00 in0.0 mm 0.00 in0.0 mm 0.01 in0.3 mm
01:40 PM 86.7°F30.4°C 75.1°F23.9°C 69% 2.2 mph NNW3.5 kmh NNW 4.9 mph7.9 kmh 29.42 in996.3 mb 0.00 in0.0 mm 0.00 in0.0 mm 0.01 in0.3 mm
01:45 PM 86.5°F30.3°C 74.9°F23.8°C 69% 0.9 mph W1.4 kmh W 4.9 mph7.9 kmh 29.42 in996.3 mb 0.00 in0.0 mm 0.00 in0.0 mm 0.01 in0.3 mm
01:50 PM 86.5°F30.3°C 74.9°F23.8°C 68% 1.3 mph NW2.1 kmh NW 4.9 mph7.9 kmh 29.41 in995.9 mb 0.00 in0.0 mm 0.00 in0.0 mm 0.01 in0.3 mm
01:55 PM 86.7°F30.4°C 74.4°F23.6°C 67% 0.9 mph NW1.4 kmh NW 2.5 mph4.0 kmh 29.41 in995.9 mb 0.00 in0.0 mm 0.00 in0.0 mm 0.01 in0.3 mm
02:00 PM 87.1°F30.6°C 74.2°F23.4°C 66% 1.4 mph NNW2.3 kmh NNW 4.9 mph7.9 kmh 29.41 in995.9 mb 0.00 in0.0 mm 0.00 in0.0 mm 0.01 in0.3 mm
02:05 PM 88.0°F31.1°C 73.9°F23.3°C 63% 0.7 mph NW1.1 kmh NW 2.5 mph4.0 kmh 29.41 in995.9 mb 0.00 in0.0 mm 0.00 in0.0 mm 0.01 in0.3 mm
02:10 PM 88.2°F31.2°C 73.1°F22.8°C 61% 0.7 mph NW1.1 kmh NW 2.5 mph4.0 kmh 29.41 in995.9 mb 0.00 in0.0 mm 0.00 in0.0 mm 0.01 in0.3 mm
02:15 PM 88.2°F31.2°C 72.8°F22.7°C 60% 0.9 mph N1.4 kmh N 2.5 mph4.0 kmh 29.41 in995.9 mb 0.00 in0.0 mm 0.00 in0.0 mm 0.01 in0.3 mm
02:20 PM 88.4°F31.3°C 72.8°F22.7°C 60% 0.9 mph N1.4 kmh N 2.5 mph4.0 kmh 29.41 in995.9 mb 0.00 in0.0 mm 0.00 in0.0 mm 0.01 in0.3 mm
02:25 PM 89.1°F31.7°C 73.1°F22.8°C 60% 1.3 mph NNW2.1 kmh NNW 2.5 mph4.0 kmh 29.41 in995.9 mb 0.00 in0.0 mm 0.00 in0.0 mm 0.01 in0.3 mm
02:30 PM 89.1°F31.7°C 73.4°F23.0°C 60% 1.6 mph NNE2.6 kmh NNE 4.9 mph7.9 kmh 29.41 in995.9 mb 0.00 in0.0 mm 0.00 in0.0 mm 0.01 in0.3 mm
02:35 PM 89.1°F31.7°C 73.0°F22.8°C 59% 1.5 mph NNW2.4 kmh NNW 4.9 mph7.9 kmh 29.40 in995.6 mb 0.00 in0.0 mm 0.00 in0.0 mm 0.01 in0.3 mm
02:40 PM 89.3°F31.8°C 72.5°F22.5°C 58% 1.1 mph N1.8 kmh N 2.5 mph4.0 kmh 29.40 in995.6 mb 0.00 in0.0 mm 0.00 in0.0 mm 0.01 in0.3 mm
02:45 PM 89.6°F32.0°C 72.2°F22.3°C 57% 1.8 mph N2.9 kmh N 2.5 mph4.0 kmh 29.39 in995.3 mb 0.00 in0.0 mm 0.00 in0.0 mm 0.01 in0.3 mm
02:50 PM 89.8°F32.1°C 72.2°F22.3°C 56% 0.5 mph NW0.8 kmh NW 2.5 mph4.0 kmh 29.39 in995.3 mb 0.00 in0.0 mm 0.00 in0.0 mm 0.01 in0.3 mm
02:55 PM 90.2°F32.3°C 71.7°F22.1°C 55% 2.1 mph NE3.4 kmh NE 4.9 mph7.9 kmh 29.39 in995.3 mb 0.00 in0.0 mm 0.00 in0.0 mm 0.01 in0.3 mm
03:00 PM 91.1°F32.8°C 72.1°F22.3°C 54% 1.3 mph NW2.1 kmh NW 4.9 mph7.9 kmh 29.39 in995.3 mb 0.00 in0.0 mm 0.00 in0.0 mm 0.01 in0.3 mm
03:05 PM 92.5°F33.6°C 72.8°F22.7°C 53% 1.7 mph N2.7 kmh N 4.9 mph7.9 kmh 29.38 in994.9 mb 0.00 in0.0 mm 0.00 in0.0 mm 0.01 in0.3 mm
03:10 PM 92.5°F33.6°C 72.8°F22.7°C 53% 1.8 mph N2.9 kmh N 4.9 mph7.9 kmh 29.38 in994.9 mb 0.00 in0.0 mm 0.00 in0.0 mm 0.01 in0.3 mm
03:15 PM 92.7°F33.7°C 72.6°F22.6°C 52% 1.4 mph N2.3 kmh N 4.9 mph7.9 kmh 29.37 in994.6 mb 0.00 in0.0 mm 0.00 in0.0 mm 0.01 in0.3 mm
03:20 PM 93.0°F33.9°C 71.6°F22.0°C 50% 1.3 mph WNW2.1 kmh WNW 2.5 mph4.0 kmh 29.37 in994.6 mb 0.00 in0.0 mm 0.00 in0.0 mm 0.01 in0.3 mm
03:25 PM 94.8°F34.9°C 73.1°F22.8°C 50% 1.3 mph NW2.1 kmh NW 2.5 mph4.0 kmh 29.36 in994.2 mb 0.00 in0.0 mm 0.00 in0.0 mm 0.01 in0.3 mm
03:30 PM 94.8°F34.9°C 72.9°F22.7°C 50% 1.5 mph NW2.4 kmh NW 4.9 mph7.9 kmh 29.36 in994.2 mb 0.00 in0.0 mm 0.00 in0.0 mm 0.01 in0.3 mm
03:35 PM 94.6°F34.8°C 73.2°F22.9°C 50% 0.4 mph W0.6 kmh W 2.5 mph4.0 kmh 29.36 in994.2 mb 0.00 in0.0 mm 0.00 in0.0 mm 0.01 in0.3 mm
03:40 PM 94.6°F34.8°C 70.4°F21.3°C 46% Calm Calm -- 29.36 in994.2 mb 0.00 in0.0 mm 0.00 in0.0 mm 0.01 in0.3 mm
03:45 PM 97.0°F36.1°C 72.1°F22.3°C 45% 0.3 mph NW0.5 kmh NW 2.5 mph4.0 kmh 29.36 in994.2 mb 0.00 in0.0 mm 0.00 in0.0 mm 0.01 in0.3 mm
03:50 PM 97.1°F36.2°C 69.9°F21.1°C 42% 1.9 mph WSW3.1 kmh WSW 4.9 mph7.9 kmh 29.36 in994.2 mb 0.00 in0.0 mm 0.00 in0.0 mm 0.01 in0.3 mm
03:55 PM 97.2°F36.2°C 67.8°F19.9°C 39% 0.9 mph SSE1.4 kmh SSE 4.9 mph7.9 kmh 29.36 in994.2 mb 0.00 in0.0 mm 0.00 in0.0 mm 0.01 in0.3 mm
04:00 PM 97.3°F36.3°C 67.8°F19.9°C 39% 4.4 mph SSE7.1 kmh SSE 7.4 mph11.9 kmh 29.35 in993.9 mb 0.00 in0.0 mm 0.00 in0.0 mm 0.01 in0.3 mm
04:05 PM 96.4°F35.8°C 67.7°F19.8°C 40% 2.2 mph SE3.5 kmh SE 7.4 mph11.9 kmh 29.35 in993.9 mb 0.00 in0.0 mm 0.00 in0.0 mm 0.01 in0.3 mm
04:10 PM 96.5°F35.8°C 66.9°F19.4°C 38% 0.8 mph S1.3 kmh S 2.5 mph4.0 kmh 29.34 in993.6 mb 0.00 in0.0 mm 0.00 in0.0 mm 0.01 in0.3 mm
04:15 PM 97.0°F36.1°C 65.7°F18.7°C 36% 1.2 mph SE1.9 kmh SE 4.9 mph7.9 kmh 29.34 in993.6 mb 0.00 in0.0 mm 0.00 in0.0 mm 0.01 in0.3 mm
04:20 PM 97.2°F36.2°C 66.4°F19.1°C 37% 1.4 mph SSW2.3 kmh SSW 4.9 mph7.9 kmh 29.34 in993.6 mb 0.00 in0.0 mm 0.00 in0.0 mm 0.01 in0.3 mm
04:25 PM 97.8°F36.6°C 67.7°F19.8°C 38% 1.3 mph ESE2.1 kmh ESE 7.4 mph11.9 kmh 29.34 in993.6 mb 0.00 in0.0 mm 0.00 in0.0 mm 0.01 in0.3 mm
04:30 PM 97.9°F36.6°C 67.1°F19.5°C 37% 3.0 mph SE4.8 kmh SE 7.4 mph11.9 kmh 29.34 in993.6 mb 0.00 in0.0 mm 0.00 in0.0 mm 0.01 in0.3 mm
04:35 PM 97.8°F36.6°C 66.8°F19.3°C 37% 5.1 mph SSE8.2 kmh SSE 9.8 mph15.8 kmh 29.33 in993.2 mb 0.00 in0.0 mm 0.00 in0.0 mm 0.01 in0.3 mm
04:40 PM 97.7°F36.5°C 67.0°F19.4°C 37% 2.8 mph S4.5 kmh S 9.8 mph15.8 kmh 29.33 in993.2 mb 0.00 in0.0 mm 0.00 in0.0 mm 0.01 in0.3 mm
04:45 PM 98.1°F36.7°C 66.0°F18.9°C 35% 3.2 mph S5.1 kmh S 7.4 mph11.9 kmh 29.33 in993.2 mb 0.00 in0.0 mm 0.00 in0.0 mm 0.01 in0.3 mm
04:50 PM 98.0°F36.7°C 66.4°F19.1°C 36% 5.5 mph SE8.9 kmh SE 9.8 mph15.8 kmh 29.33 in993.2 mb 0.00 in0.0 mm 0.00 in0.0 mm 0.01 in0.3 mm
04:55 PM 97.7°F36.5°C 67.7°F19.8°C 38% 2.6 mph S4.2 kmh S 4.9 mph7.9 kmh 29.33 in993.2 mb 0.00 in0.0 mm 0.00 in0.0 mm 0.01 in0.3 mm
05:00 PM 97.2°F36.2°C 68.2°F20.1°C 39% 2.8 mph SE4.5 kmh SE 9.8 mph15.8 kmh 29.32 in992.9 mb 0.00 in0.0 mm 0.00 in0.0 mm 0.01 in0.3 mm
05:05 PM 94.8°F34.9°C 66.7°F19.3°C 40% 4.0 mph SE6.4 kmh SE 7.4 mph11.9 kmh 29.32 in992.9 mb 0.00 in0.0 mm 0.00 in0.0 mm 0.01 in0.3 mm
05:10 PM 94.6°F34.8°C 67.0°F19.4°C 41% 3.1 mph SSE5.0 kmh SSE 4.9 mph7.9 kmh 29.32 in992.9 mb 0.00 in0.0 mm 0.00 in0.0 mm 0.01 in0.3 mm
05:15 PM 94.6°F34.8°C 67.3°F19.6°C 41% 1.5 mph SSE2.4 kmh SSE 4.9 mph7.9 kmh 29.32 in992.9 mb 0.00 in0.0 mm 0.00 in0.0 mm 0.01 in0.3 mm
05:20 PM 94.6°F34.8°C 68.4°F20.2°C 43% 0.1 mph SSW0.2 kmh SSW 2.5 mph4.0 kmh 29.32 in992.9 mb 0.00 in0.0 mm 0.00 in0.0 mm 0.01 in0.3 mm
05:25 PM 93.7°F34.3°C 69.5°F20.8°C 46% 0.6 mph W1.0 kmh W 2.5 mph4.0 kmh 29.32 in992.9 mb 0.00 in0.0 mm 0.00 in0.0 mm 0.01 in0.3 mm
05:30 PM 93.5°F34.2°C 71.6°F22.0°C 49% 0.5 mph WNW0.8 kmh WNW 2.5 mph4.0 kmh 29.32 in992.9 mb 0.00 in0.0 mm 0.00 in0.0 mm 0.01 in0.3 mm
05:35 PM 93.0°F33.9°C 71.8°F22.1°C 50% 0.8 mph WSW1.3 kmh WSW 4.9 mph7.9 kmh 29.31 in992.6 mb 0.00 in0.0 mm 0.00 in0.0 mm 0.01 in0.3 mm
05:40 PM 92.6°F33.7°C 66.0°F18.9°C 42% 2.9 mph SSE4.7 kmh SSE 7.4 mph11.9 kmh 29.31 in992.6 mb 0.00 in0.0 mm 0.00 in0.0 mm 0.01 in0.3 mm
05:45 PM 93.2°F34.0°C 67.1°F19.5°C 43% 0.7 mph SSW1.1 kmh SSW 2.5 mph4.0 kmh 29.31 in992.6 mb 0.00 in0.0 mm 0.00 in0.0 mm 0.01 in0.3 mm
05:50 PM 93.4°F34.1°C 67.6°F19.8°C 43% 1.1 mph SSE1.8 kmh SSE 4.9 mph7.9 kmh 29.31 in992.6 mb 0.00 in0.0 mm 0.00 in0.0 mm 0.01 in0.3 mm
05:55 PM 93.2°F34.0°C 65.8°F18.8°C 41% 1.7 mph SSE2.7 kmh SSE 4.9 mph7.9 kmh 29.31 in992.6 mb 0.00 in0.0 mm 0.00 in0.0 mm 0.01 in0.3 mm
06:00 PM 93.2°F34.0°C 64.8°F18.2°C 39% 0.4 mph S0.6 kmh S 4.9 mph7.9 kmh 29.31 in992.6 mb 0.00 in0.0 mm 0.00 in0.0 mm 0.01 in0.3 mm
06:05 PM 93.3°F34.1°C 65.3°F18.5°C 40% Calm Calm -- 29.32 in992.9 mb 0.00 in0.0 mm 0.00 in0.0 mm 0.01 in0.3 mm
06:10 PM 93.2°F34.0°C 66.1°F18.9°C 41% Calm Calm -- 29.32 in992.9 mb 0.00 in0.0 mm 0.00 in0.0 mm 0.01 in0.3 mm
06:15 PM 93.2°F34.0°C 67.3°F19.6°C 43% 0.1 mph NW0.2 kmh NW 2.5 mph4.0 kmh 29.33 in993.2 mb 0.00 in0.0 mm 0.00 in0.0 mm 0.01 in0.3 mm
06:20 PM 92.9°F33.8°C 70.3°F21.3°C 48% 0.9 mph NW1.4 kmh NW 2.5 mph4.0 kmh 29.33 in993.2 mb 0.00 in0.0 mm 0.00 in0.0 mm 0.01 in0.3 mm
06:25 PM 91.6°F33.1°C 70.1°F21.2°C 50% 0.4 mph WNW0.6 kmh WNW 2.5 mph4.0 kmh 29.33 in993.2 mb 0.00 in0.0 mm 0.00 in0.0 mm 0.01 in0.3 mm
06:30 PM 90.5°F32.5°C 69.5°F20.8°C 50% 1.1 mph W1.8 kmh W 4.9 mph7.9 kmh 29.34 in993.6 mb 0.00 in0.0 mm 0.00 in0.0 mm 0.01 in0.3 mm
06:35 PM 90.4°F32.4°C 72.9°F22.7°C 57% 1.9 mph WNW3.1 kmh WNW 4.9 mph7.9 kmh 29.33 in993.2 mb 0.00 in0.0 mm 0.00 in0.0 mm 0.01 in0.3 mm
06:40 PM 90.1°F32.3°C 74.0°F23.3°C 60% 0.8 mph WNW1.3 kmh WNW 4.9 mph7.9 kmh 29.34 in993.6 mb 0.00 in0.0 mm 0.00 in0.0 mm 0.01 in0.3 mm
06:45 PM 88.8°F31.6°C 73.7°F23.2°C 61% 1.1 mph W1.8 kmh W 4.9 mph7.9 kmh 29.34 in993.6 mb 0.00 in0.0 mm 0.00 in0.0 mm 0.01 in0.3 mm
06:50 PM 88.3°F31.3°C 73.6°F23.1°C 62% 4.1 mph NW6.6 kmh NW 9.8 mph15.8 kmh 29.35 in993.9 mb 0.00 in0.0 mm 0.00 in0.0 mm 0.01 in0.3 mm
06:55 PM 87.9°F31.1°C 73.2°F22.9°C 62% 8.0 mph NW12.9 kmh NW 22.4 mph36.0 kmh 29.36 in994.2 mb 0.00 in0.0 mm 0.00 in0.0 mm 0.01 in0.3 mm
07:00 PM 87.1°F30.6°C 74.1°F23.4°C 66% 9.1 mph NW14.6 kmh NW 17.4 mph28.0 kmh 29.37 in994.6 mb 0.00 in0.0 mm 0.00 in0.0 mm 0.01 in0.3 mm
07:05 PM 83.1°F28.4°C 72.6°F22.6°C 71% 7.3 mph NW11.7 kmh NW 19.9 mph32.0 kmh 29.39 in995.3 mb 0.00 in0.0 mm 0.00 in0.0 mm 0.01 in0.3 mm
07:10 PM 79.8°F26.6°C 71.2°F21.8°C 75% 9.0 mph NW14.5 kmh NW 19.9 mph32.0 kmh 29.39 in995.3 mb 0.00 in0.0 mm 0.00 in0.0 mm 0.01 in0.3 mm
07:15 PM 79.5°F26.4°C 71.8°F22.1°C 77% 13.8 mph NW22.2 kmh NW 22.4 mph36.0 kmh 29.39 in995.3 mb 0.00 in0.0 mm 0.00 in0.0 mm 0.01 in0.3 mm
07:20 PM 79.2°F26.2°C 71.8°F22.1°C 78% 11.6 mph NW18.7 kmh NW 22.4 mph36.0 kmh 29.39 in995.3 mb 0.00 in0.0 mm 0.00 in0.0 mm 0.01 in0.3 mm
07:25 PM 78.9°F26.1°C 71.5°F21.9°C 78% 16.1 mph NNW25.9 kmh NNW 27.5 mph44.3 kmh 29.39 in995.3 mb 0.00 in0.0 mm 0.00 in0.0 mm 0.01 in0.3 mm
07:30 PM 77.2°F25.1°C 70.5°F21.4°C 80% 8.3 mph WSW13.4 kmh WSW 15.0 mph24.1 kmh 29.41 in995.9 mb 0.00 in0.0 mm 0.00 in0.0 mm 0.01 in0.3 mm
07:35 PM 77.2°F25.1°C 71.1°F21.7°C 82% 6.5 mph NW10.5 kmh NW 17.4 mph28.0 kmh 29.41 in995.9 mb 0.00 in0.0 mm 0.00 in0.0 mm 0.01 in0.3 mm
07:40 PM 77.2°F25.1°C 71.0°F21.7°C 81% 11.0 mph NW17.7 kmh NW 24.8 mph39.9 kmh 29.40 in995.6 mb 0.00 in0.0 mm 0.00 in0.0 mm 0.01 in0.3 mm
07:45 PM 77.2°F25.1°C 70.1°F21.2°C 79% 10.7 mph NW17.2 kmh NW 19.9 mph32.0 kmh 29.41 in995.9 mb 0.00 in0.0 mm 0.00 in0.0 mm 0.01 in0.3 mm
07:50 PM 77.3°F25.2°C 69.1°F20.6°C 76% 5.8 mph NW9.3 kmh NW 9.8 mph15.8 kmh 29.40 in995.6 mb 0.00 in0.0 mm 0.00 in0.0 mm 0.01 in0.3 mm
07:55 PM 77.5°F25.3°C 68.5°F20.3°C 74% 6.0 mph NW9.7 kmh NW 15.0 mph24.1 kmh 29.39 in995.3 mb 0.00 in0.0 mm 0.00 in0.0 mm 0.01 in0.3 mm
08:00 PM 77.8°F25.4°C 68.8°F20.4°C 74% 11.0 mph NW17.7 kmh NW 19.9 mph32.0 kmh 29.39 in995.3 mb 0.00 in0.0 mm 0.00 in0.0 mm 0.01 in0.3 mm
08:05 PM 78.3°F25.7°C 69.5°F20.8°C 74% 9.4 mph NW15.1 kmh NW 19.9 mph32.0 kmh 29.40 in995.6 mb 0.00 in0.0 mm 0.00 in0.0 mm 0.01 in0.3 mm
08:10 PM 78.4°F25.8°C 69.8°F21.0°C 75% 5.6 mph WNW9.0 kmh WNW 12.3 mph19.8 kmh 29.41 in995.9 mb 0.00 in0.0 mm 0.00 in0.0 mm 0.01 in0.3 mm
08:15 PM 78.2°F25.7°C 69.7°F20.9°C 75% 4.1 mph WNW6.6 kmh WNW 15.0 mph24.1 kmh 29.42 in996.3 mb 0.00 in0.0 mm 0.00 in0.0 mm 0.01 in0.3 mm
08:20 PM 78.0°F25.6°C 68.6°F20.3°C 73% 2.0 mph NW3.2 kmh NW 4.9 mph7.9 kmh 29.42 in996.3 mb 0.00 in0.0 mm 0.00 in0.0 mm 0.01 in0.3 mm
08:25 PM 77.6°F25.3°C 68.1°F20.1°C 73% 3.0 mph N4.8 kmh N 9.8 mph15.8 kmh 29.42 in996.3 mb 0.00 in0.0 mm 0.00 in0.0 mm 0.01 in0.3 mm
08:30 PM 77.1°F25.1°C 67.6°F19.8°C 72% 2.4 mph NW3.9 kmh NW 4.9 mph7.9 kmh 29.41 in995.9 mb 0.00 in0.0 mm 0.00 in0.0 mm 0.01 in0.3 mm
08:35 PM 77.0°F25.0°C 68.0°F20.0°C 74% 4.4 mph NW7.1 kmh NW 7.4 mph11.9 kmh 29.41 in995.9 mb 0.00 in0.0 mm 0.00 in0.0 mm 0.01 in0.3 mm
08:40 PM 77.0°F25.0°C 68.3°F20.2°C 75% 4.4 mph N7.1 kmh N 9.8 mph15.8 kmh 29.41 in995.9 mb 0.00 in0.0 mm 0.00 in0.0 mm 0.01 in0.3 mm
08:45 PM 76.6°F24.8°C 68.4°F20.2°C 76% 4.1 mph NNE6.6 kmh NNE 7.4 mph11.9 kmh 29.40 in995.6 mb 0.00 in0.0 mm 0.00 in0.0 mm 0.01 in0.3 mm
08:50 PM 75.9°F24.4°C 68.3°F20.2°C 78% 3.9 mph N6.3 kmh N 9.8 mph15.8 kmh 29.39 in995.3 mb 0.00 in0.0 mm 0.00 in0.0 mm 0.01 in0.3 mm
08:55 PM 75.7°F24.3°C 68.5°F20.3°C 78% 2.9 mph NE4.7 kmh NE 4.9 mph7.9 kmh 29.39 in995.3 mb 0.00 in0.0 mm 0.00 in0.0 mm 0.01 in0.3 mm